San Pedro, California
Current Conditions -  °F | °C
As of 8:53 PM on Thursday 30 Oct 2014 (Local Time) from KLGB Reporting Station
Few Clouds Few Clouds  
Wind Chill: 66°   Ceiling: Unl
Heat Index: 66°   Visibility: 10mi
Dew Point: 61°   Wind: 3mph
Humidity: 84%   Direction: 310°NW
Pressure: 29.96"   Gusts: NA
Location:  33.74°N, 118.29°W
Report Text: KLGB 310353Z 31003KT 10SM FEW014 19/16 A2996 RMK AO2 SLP143 T01890161
Loading
Personal Weather Stations






























Interactive Weather Map
Tropical Storm Tracking
New forecast layout! Learn more

10-Day Weather Forecast

Advertisements
Track Severe Weather on mobile